createdAt,value
2023-12-21T00:00:11.931Z,95.69
2023-12-21T00:00:42.556Z,94.90
2023-12-21T00:01:13.148Z,95.69
2023-12-21T00:01:43.807Z,95.69
2023-12-21T00:02:14.177Z,96.47
2023-12-21T00:03:15.531Z,96.47
2023-12-21T00:03:46.191Z,97.25
2023-12-21T00:04:16.692Z,97.25
2023-12-21T00:04:47.167Z,97.25
2023-12-21T00:05:17.800Z,97.65
2023-12-21T00:06:19.674Z,96.08
2023-12-21T00:06:50.207Z,96.08
2023-12-21T00:07:20.811Z,97.25
2023-12-21T00:07:51.756Z,97.65
2023-12-21T00:08:21.960Z,95.69
2023-12-21T00:08:52.481Z,95.69
2023-12-21T00:09:23.068Z,96.47
2023-12-21T00:09:53.575Z,96.47
2023-12-21T00:10:24.078Z,96.08
2023-12-21T00:10:54.637Z,96.47
2023-12-21T00:11:25.601Z,96.47
2023-12-21T00:11:56.131Z,96.08
2023-12-21T00:12:26.701Z,96.08
2023-12-21T00:12:57.166Z,97.65
2023-12-21T00:13:58.316Z,96.86
2023-12-21T00:14:28.742Z,95.69
2023-12-21T00:14:59.249Z,96.47
2023-12-21T00:15:29.764Z,96.08
2023-12-21T00:16:00.194Z,94.51
2023-12-21T00:16:30.879Z,96.08
2023-12-21T00:17:32.000Z,96.86
2023-12-21T00:18:02.476Z,98.04
2023-12-21T00:18:33.180Z,96.47
2023-12-21T00:19:03.455Z,98.04
2023-12-21T00:19:33.968Z,98.82
2023-12-21T00:20:04.269Z,98.82
2023-12-21T00:20:34.643Z,96.86
2023-12-21T00:21:05.031Z,96.08
2023-12-21T00:21:35.630Z,96.86
2023-12-21T00:22:06.872Z,95.69
2023-12-21T00:22:37.415Z,96.08
2023-12-21T00:23:07.982Z,97.25
2023-12-21T00:23:38.352Z,97.25
2023-12-21T00:24:08.908Z,97.65
2023-12-21T00:24:39.338Z,96.08
2023-12-21T00:25:09.810Z,96.08
2023-12-21T00:25:40.354Z,97.25
2023-12-21T00:26:10.704Z,96.86
2023-12-21T00:26:41.379Z,96.86
2023-12-21T00:27:11.964Z,96.47
2023-12-21T00:27:42.437Z,96.86
2023-12-21T00:28:12.978Z,96.86
2023-12-21T00:28:43.472Z,97.25
2023-12-21T00:29:13.929Z,97.25
2023-12-21T00:29:44.342Z,96.08
2023-12-21T00:30:14.850Z,96.08
2023-12-21T00:30:45.371Z,94.51
2023-12-21T00:31:15.896Z,94.51
2023-12-21T00:31:46.424Z,95.69
2023-12-21T00:32:16.785Z,95.69
2023-12-21T00:32:47.270Z,96.86
2023-12-21T00:33:17.719Z,96.47
2023-12-21T00:34:18.684Z,97.25
2023-12-21T00:34:48.943Z,95.29
2023-12-21T00:35:19.355Z,95.69
2023-12-21T00:35:49.648Z,97.65
2023-12-21T00:36:20.071Z,95.69
2023-12-21T00:37:21.290Z,96.47
2023-12-21T00:37:51.491Z,97.65
2023-12-21T00:38:21.847Z,96.08
2023-12-21T00:38:52.214Z,96.47
2023-12-21T00:39:22.611Z,95.69
2023-12-21T00:39:53.017Z,95.29
2023-12-21T00:40:23.407Z,96.08
2023-12-21T00:40:53.739Z,95.69
2023-12-21T00:41:24.151Z,96.86
2023-12-21T00:41:54.598Z,97.25
2023-12-21T00:42:25.026Z,95.69
2023-12-21T00:42:55.469Z,96.08
2023-12-21T00:43:25.700Z,95.69
2023-12-21T00:43:56.088Z,95.29
2023-12-21T00:44:26.775Z,95.69
2023-12-21T00:44:56.843Z,96.47
2023-12-21T00:45:27.086Z,94.51
2023-12-21T00:45:57.495Z,94.51
2023-12-21T00:46:27.920Z,94.90
2023-12-21T00:46:58.437Z,96.47
2023-12-21T00:47:28.920Z,95.29
2023-12-21T00:47:59.433Z,94.51
2023-12-21T00:48:29.752Z,94.51
2023-12-21T00:49:00.190Z,96.47
2023-12-21T00:50:01.130Z,96.47
2023-12-21T00:50:31.455Z,94.90
2023-12-21T00:51:01.844Z,95.29
2023-12-21T00:51:32.278Z,96.47
2023-12-21T00:52:02.709Z,96.86
2023-12-21T00:52:33.169Z,96.47
2023-12-21T00:53:03.462Z,96.47
2023-12-21T00:53:34.088Z,96.86
2023-12-21T00:54:04.594Z,94.51
2023-12-21T00:54:34.976Z,94.90
2023-12-21T00:55:05.530Z,96.08
2023-12-21T00:55:35.953Z,94.90
2023-12-21T00:56:06.165Z,96.08
2023-12-21T00:56:36.596Z,95.69
2023-12-21T00:57:10.199Z,96.47
2023-12-21T00:57:38.217Z,95.69
2023-12-21T00:58:08.693Z,93.33
2023-12-21T00:58:39.188Z,94.90
2023-12-21T00:59:09.764Z,94.90
2023-12-21T00:59:40.218Z,95.69
2023-12-21T01:00:10.742Z,96.86
2023-12-21T01:00:41.186Z,93.73
2023-12-21T01:01:11.747Z,94.51
2023-12-21T01:01:42.063Z,94.90
2023-12-21T01:02:12.787Z,94.12
2023-12-21T01:03:13.735Z,94.51
2023-12-21T01:03:44.043Z,94.51
2023-12-21T01:04:14.525Z,95.29
2023-12-21T01:04:45.003Z,95.29
2023-12-21T01:05:15.334Z,95.29
2023-12-21T01:06:16.277Z,95.69
2023-12-21T01:06:46.696Z,94.90
2023-12-21T01:07:48.970Z,94.90
2023-12-21T01:08:19.159Z,95.69
2023-12-21T01:08:49.656Z,95.69
2023-12-21T01:09:20.084Z,95.29
2023-12-21T01:09:50.763Z,95.69
2023-12-21T01:10:20.963Z,96.08
2023-12-21T01:10:51.320Z,95.29
2023-12-21T01:11:21.680Z,95.29
2023-12-21T01:11:52.287Z,96.08
2023-12-21T01:12:22.718Z,96.86
2023-12-21T01:12:53.286Z,96.47
2023-12-21T01:13:23.878Z,97.25
2023-12-21T01:13:54.116Z,98.43
2023-12-21T01:14:24.536Z,97.25
2023-12-21T01:14:54.946Z,99.22
2023-12-21T01:15:25.380Z,99.22
2023-12-21T01:15:55.859Z,97.25
2023-12-21T01:16:26.303Z,97.25
2023-12-21T01:16:56.640Z,98.43
2023-12-21T01:17:27.180Z,96.86
2023-12-21T01:17:57.761Z,100.00
2023-12-21T01:18:28.427Z,98.43
2023-12-21T01:18:58.862Z,98.04
2023-12-21T01:19:29.401Z,98.43
2023-12-21T01:19:59.728Z,96.86
2023-12-21T01:20:29.997Z,98.43
2023-12-21T01:21:00.376Z,96.47
2023-12-21T01:21:30.803Z,96.08
2023-12-21T01:22:01.421Z,96.47
2023-12-21T01:22:31.798Z,96.47
2023-12-21T01:23:02.392Z,98.82
2023-12-21T01:23:32.850Z,100.00
2023-12-21T01:24:03.282Z,100.00
2023-12-21T01:24:34.104Z,98.82
2023-12-21T01:25:04.621Z,97.25
2023-12-21T01:25:35.027Z,98.04
2023-12-21T01:26:05.650Z,98.43
2023-12-21T01:26:36.594Z,96.86
2023-12-21T01:27:09.081Z,96.86
2023-12-21T01:27:37.551Z,96.47
2023-12-21T01:28:08.142Z,99.22
2023-12-21T01:28:39.104Z,98.82
2023-12-21T01:29:09.431Z,100.00
2023-12-21T01:29:39.835Z,98.82
2023-12-21T01:30:10.400Z,97.25
2023-12-21T01:30:41.042Z,95.69
2023-12-21T01:31:11.555Z,95.69
2023-12-21T01:31:41.848Z,96.08
2023-12-21T01:32:12.384Z,97.25
2023-12-21T01:33:13.788Z,99.22
2023-12-21T01:33:44.268Z,100.00
2023-12-21T01:34:14.933Z,100.00
2023-12-21T01:34:45.184Z,100.00
2023-12-21T01:35:15.890Z,100.00
2023-12-21T01:35:46.043Z,100.00
2023-12-21T01:36:47.346Z,98.04
2023-12-21T01:37:17.734Z,96.86
2023-12-21T01:37:48.331Z,97.25
2023-12-21T01:38:18.776Z,96.86
2023-12-21T01:38:49.201Z,96.47
2023-12-21T01:39:21.770Z,96.08
2023-12-21T01:39:50.691Z,95.69
2023-12-21T01:40:21.248Z,96.08
2023-12-21T01:40:51.938Z,96.86
2023-12-21T01:41:22.197Z,97.25
2023-12-21T01:41:52.673Z,97.65
2023-12-21T01:42:23.208Z,100.00
2023-12-21T01:42:53.615Z,100.00
2023-12-21T01:43:24.210Z,100.00
2023-12-21T01:43:54.617Z,99.22
2023-12-21T01:44:27.477Z,98.82
2023-12-21T01:44:55.766Z,100.00
2023-12-21T01:45:26.312Z,100.00
2023-12-21T01:45:56.744Z,97.65
2023-12-21T01:46:57.765Z,100.00
2023-12-21T01:47:28.261Z,100.00
2023-12-21T01:47:58.731Z,99.22
2023-12-21T01:48:29.502Z,98.82
2023-12-21T01:48:59.943Z,100.00
2023-12-21T01:49:30.377Z,100.00
2023-12-21T01:50:00.923Z,100.00
2023-12-21T01:50:31.314Z,100.00
2023-12-21T01:51:01.941Z,100.00
2023-12-21T01:51:32.392Z,100.00
2023-12-21T01:52:02.878Z,100.00
2023-12-21T01:52:33.342Z,99.22
2023-12-21T01:53:34.463Z,98.82
2023-12-21T01:54:04.908Z,100.00
2023-12-21T01:54:35.311Z,100.00
2023-12-21T01:55:05.795Z,100.00
2023-12-21T01:55:36.359Z,100.00
2023-12-21T01:56:06.732Z,100.00
2023-12-21T01:57:07.961Z,100.00
2023-12-21T01:57:38.463Z,100.00
2023-12-21T01:58:08.887Z,100.00
2023-12-21T01:58:39.495Z,100.00
2023-12-21T01:59:09.972Z,100.00
2023-12-21T01:59:40.309Z,100.00
2023-12-21T02:00:10.764Z,99.22
2023-12-21T02:00:41.332Z,96.08
2023-12-21T02:01:11.767Z,93.73
2023-12-21T02:01:42.119Z,94.51
2023-12-21T02:02:12.695Z,94.51
2023-12-21T02:02:43.139Z,94.51
2023-12-21T02:03:13.622Z,94.90
2023-12-21T02:03:44.283Z,94.90
2023-12-21T02:04:14.736Z,94.51
2023-12-21T02:04:45.263Z,94.51
2023-12-21T02:05:15.721Z,93.73
2023-12-21T02:05:46.234Z,94.51
2023-12-21T02:06:16.641Z,95.29
2023-12-21T02:06:47.007Z,95.69
2023-12-21T02:07:17.465Z,95.69
2023-12-21T02:07:47.881Z,96.47
2023-12-21T02:08:18.297Z,96.47
2023-12-21T02:09:19.551Z,96.86
2023-12-21T02:09:50.170Z,96.08
2023-12-21T02:10:20.637Z,96.47
2023-12-21T02:10:51.145Z,97.25
2023-12-21T02:11:21.470Z,97.65
2023-12-21T02:11:51.806Z,97.65
2023-12-21T02:12:22.122Z,96.86
2023-12-21T02:13:22.993Z,96.86
2023-12-21T02:13:53.323Z,97.65
2023-12-21T02:14:23.792Z,95.69
2023-12-21T02:14:54.337Z,96.08
2023-12-21T02:15:24.862Z,94.90
2023-12-21T02:15:55.910Z,94.90
2023-12-21T02:16:58.074Z,95.69
2023-12-21T02:17:28.584Z,95.69
2023-12-21T02:17:59.133Z,97.25
2023-12-21T02:18:29.684Z,94.90
2023-12-21T02:19:00.642Z,96.08
2023-12-21T02:19:31.531Z,97.25
2023-12-21T02:20:02.467Z,98.04
2023-12-21T02:21:03.618Z,99.22
2023-12-21T02:21:33.969Z,97.65
2023-12-21T02:22:04.525Z,96.08
2023-12-21T02:22:34.923Z,96.08
2023-12-21T02:23:05.380Z,98.04
2023-12-21T02:23:35.686Z,97.25
2023-12-21T02:24:06.261Z,97.25
2023-12-21T02:24:36.806Z,98.04
2023-12-21T02:25:07.709Z,99.22
2023-12-21T02:25:38.598Z,100.00
2023-12-21T02:26:09.488Z,99.22
2023-12-21T02:26:40.269Z,96.86
2023-12-21T02:27:10.853Z,96.86
2023-12-21T02:28:11.801Z,96.08
2023-12-21T02:28:42.094Z,96.86
2023-12-21T02:29:12.416Z,100.00
2023-12-21T02:29:42.909Z,98.82
2023-12-21T02:30:13.255Z,100.00
2023-12-21T02:31:14.145Z,97.25
2023-12-21T02:31:44.504Z,96.08
2023-12-21T02:32:14.838Z,97.65
2023-12-21T02:32:45.458Z,99.22
2023-12-21T02:33:15.650Z,98.04
2023-12-21T02:33:46.124Z,98.04
2023-12-21T02:34:16.439Z,97.65
2023-12-21T02:34:46.853Z,99.22
2023-12-21T02:35:17.186Z,100.00
2023-12-21T02:35:47.683Z,100.00
2023-12-21T02:36:18.225Z,98.04
2023-12-21T02:36:48.463Z,96.86
2023-12-21T02:37:18.804Z,96.86
2023-12-21T02:37:49.269Z,100.00
2023-12-21T02:38:19.683Z,98.43
2023-12-21T02:38:50.143Z,100.00
2023-12-21T02:39:20.599Z,100.00
2023-12-21T02:39:51.107Z,98.43
2023-12-21T02:40:52.188Z,100.00
2023-12-21T02:41:22.546Z,99.22
2023-12-21T02:41:52.949Z,100.00
2023-12-21T02:42:23.334Z,97.65
2023-12-21T02:42:53.679Z,95.29
2023-12-21T02:43:24.123Z,97.25
2023-12-21T02:43:54.552Z,100.00
2023-12-21T02:44:24.868Z,96.86
2023-12-21T02:44:55.376Z,100.00
2023-12-21T02:45:25.708Z,98.04
2023-12-21T02:45:56.141Z,98.43
2023-12-21T02:46:26.598Z,96.08
2023-12-21T02:47:28.577Z,96.86
2023-12-21T02:47:58.882Z,96.08
2023-12-21T02:48:29.227Z,99.22
2023-12-21T02:48:59.672Z,98.82
2023-12-21T02:49:30.066Z,100.00
2023-12-21T02:50:01.105Z,100.00
2023-12-21T02:50:31.543Z,100.00
2023-12-21T02:51:02.179Z,100.00
2023-12-21T02:51:32.661Z,98.04
2023-12-21T02:52:03.104Z,99.22
2023-12-21T02:52:33.545Z,98.43
2023-12-21T02:53:03.744Z,100.00
2023-12-21T02:53:34.255Z,100.00
2023-12-21T02:54:04.681Z,100.00
2023-12-21T02:54:35.069Z,100.00
2023-12-21T02:55:05.716Z,100.00
2023-12-21T02:55:36.269Z,100.00
2023-12-21T02:56:06.530Z,100.00
2023-12-21T02:56:37.295Z,100.00
2023-12-21T02:57:08.169Z,100.00
2023-12-21T02:57:38.633Z,99.22
2023-12-21T02:58:08.980Z,100.00
2023-12-21T02:58:39.887Z,100.00
2023-12-21T02:59:10.604Z,99.22
2023-12-21T02:59:41.585Z,100.00
2023-12-21T03:00:12.596Z,100.00
2023-12-21T03:00:43.063Z,99.22
2023-12-21T03:01:13.408Z,100.00
2023-12-21T03:01:43.961Z,100.00
2023-12-21T03:02:14.586Z,100.00
2023-12-21T03:02:45.636Z,97.65
2023-12-21T03:03:16.272Z,98.43
2023-12-21T03:03:47.416Z,96.47
2023-12-21T03:04:17.615Z,98.43
2023-12-21T03:04:48.200Z,98.43
2023-12-21T03:05:19.013Z,100.00
2023-12-21T03:05:49.891Z,100.00
2023-12-21T03:06:20.280Z,100.00
2023-12-21T03:06:50.616Z,98.43
2023-12-21T03:07:21.742Z,97.65
2023-12-21T03:07:53.307Z,98.04
2023-12-21T03:09:26.493Z,100.00
2023-12-21T03:09:57.413Z,96.47
2023-12-21T03:10:59.125Z,98.04
2023-12-21T03:11:29.530Z,98.43
2023-12-21T03:11:59.882Z,100.00
2023-12-21T03:12:30.763Z,100.00
2023-12-21T03:13:32.397Z,98.82
2023-12-21T03:14:02.658Z,96.86
2023-12-21T03:14:33.482Z,98.43
2023-12-21T03:15:04.300Z,98.82
2023-12-21T03:15:35.165Z,97.65
2023-12-21T03:16:06.202Z,100.00
2023-12-21T03:16:36.683Z,100.00
2023-12-21T03:17:06.969Z,100.00
2023-12-21T03:17:37.410Z,100.00
2023-12-21T03:18:07.940Z,100.00
2023-12-21T03:18:38.432Z,100.00
2023-12-21T03:19:08.706Z,100.00
2023-12-21T03:19:39.590Z,100.00
2023-12-21T03:20:10.473Z,100.00
2023-12-21T03:20:41.219Z,100.00
2023-12-21T03:21:12.169Z,100.00
2023-12-21T03:21:42.633Z,100.00
2023-12-21T03:22:13.055Z,100.00
2023-12-21T03:22:44.037Z,100.00
2023-12-21T03:23:14.680Z,100.00
2023-12-21T03:23:45.173Z,100.00
2023-12-21T03:24:15.506Z,100.00
2023-12-21T03:24:45.886Z,100.00
2023-12-21T03:25:16.256Z,100.00
2023-12-21T03:25:46.693Z,100.00
2023-12-21T03:26:17.253Z,100.00
2023-12-21T03:26:47.598Z,100.00
2023-12-21T03:27:48.465Z,100.00
2023-12-21T03:28:18.923Z,100.00
2023-12-21T03:28:49.206Z,100.00
2023-12-21T03:29:19.594Z,100.00
2023-12-21T03:29:50.656Z,100.00
2023-12-21T03:30:21.433Z,100.00
2023-12-21T03:30:52.305Z,99.22
2023-12-21T03:31:23.307Z,100.00
2023-12-21T03:31:53.676Z,100.00
2023-12-21T03:32:24.026Z,100.00
2023-12-21T03:32:54.932Z,100.00
2023-12-21T03:33:25.789Z,100.00
2023-12-21T03:33:56.318Z,100.00
2023-12-21T03:34:26.730Z,100.00
2023-12-21T03:34:57.007Z,100.00
2023-12-21T03:35:27.389Z,100.00
2023-12-21T03:35:57.765Z,98.82
2023-12-21T03:36:28.700Z,100.00
2023-12-21T03:36:59.618Z,99.22
2023-12-21T03:37:30.497Z,99.22
2023-12-21T03:38:00.421Z,100.00
2023-12-21T03:38:30.873Z,100.00
2023-12-21T03:39:01.215Z,100.00
2023-12-21T03:39:31.574Z,100.00
2023-12-21T03:40:02.083Z,100.00
2023-12-21T03:40:32.377Z,100.00
2023-12-21T03:41:02.728Z,100.00
2023-12-21T03:41:33.313Z,100.00
2023-12-21T03:42:05.434Z,100.00
2023-12-21T03:42:35.865Z,100.00
2023-12-21T03:43:06.362Z,100.00
2023-12-21T03:43:36.769Z,100.00
2023-12-21T03:44:07.539Z,100.00
2023-12-21T03:44:38.420Z,100.00
2023-12-21T03:45:09.307Z,100.00
2023-12-21T03:45:40.241Z,100.00
2023-12-21T03:46:11.448Z,100.00
2023-12-21T03:46:42.422Z,100.00
2023-12-21T03:47:13.375Z,100.00
2023-12-21T03:47:43.794Z,100.00
2023-12-21T03:48:14.158Z,100.00
2023-12-21T03:48:44.798Z,100.00
2023-12-21T03:49:15.151Z,100.00
2023-12-21T03:49:46.026Z,100.00
2023-12-21T03:50:16.902Z,100.00
2023-12-21T03:50:48.007Z,100.00
2023-12-21T03:51:18.880Z,100.00
2023-12-21T03:51:49.370Z,100.00
2023-12-21T03:52:19.837Z,100.00
2023-12-21T03:53:21.785Z,100.00
2023-12-21T03:53:52.131Z,100.00
2023-12-21T03:54:22.567Z,100.00
2023-12-21T03:54:52.911Z,100.00
2023-12-21T03:55:23.794Z,100.00
2023-12-21T03:55:54.649Z,100.00
2023-12-21T03:56:25.550Z,100.00
2023-12-21T03:57:27.671Z,100.00
2023-12-21T03:57:58.666Z,100.00
2023-12-21T03:58:29.486Z,100.00
2023-12-21T03:59:00.244Z,100.00
2023-12-21T03:59:31.106Z,100.00
2023-12-21T04:00:02.132Z,100.00
2023-12-21T04:00:32.999Z,100.00
2023-12-21T04:01:03.944Z,100.00
2023-12-21T04:01:34.756Z,100.00
2023-12-21T04:02:05.753Z,100.00
2023-12-21T04:02:36.095Z,100.00
2023-12-21T04:03:06.582Z,100.00
2023-12-21T04:03:37.497Z,100.00
2023-12-21T04:04:08.281Z,100.00
2023-12-21T04:04:39.228Z,100.00
2023-12-21T04:05:40.577Z,100.00
2023-12-21T04:06:10.941Z,100.00
2023-12-21T04:06:41.774Z,100.00
2023-12-21T04:07:13.806Z,100.00
2023-12-21T04:07:44.823Z,100.00
2023-12-21T04:08:15.613Z,100.00
2023-12-21T04:08:46.080Z,100.00
2023-12-21T04:09:16.427Z,100.00
2023-12-21T04:09:46.878Z,100.00
2023-12-21T04:10:17.252Z,100.00
2023-12-21T04:10:47.657Z,100.00
2023-12-21T04:11:18.465Z,100.00
2023-12-21T04:11:49.882Z,100.00
2023-12-21T04:12:52.118Z,100.00
2023-12-21T04:13:23.124Z,100.00
2023-12-21T04:13:53.990Z,100.00
2023-12-21T04:14:24.856Z,100.00
2023-12-21T04:14:55.675Z,100.00
2023-12-21T04:15:26.476Z,100.00
2023-12-21T04:15:57.314Z,100.00
2023-12-21T04:16:28.186Z,100.00
2023-12-21T04:16:58.968Z,100.00
2023-12-21T04:17:29.919Z,100.00
2023-12-21T04:18:32.060Z,100.00
2023-12-21T04:19:02.853Z,100.00
2023-12-21T04:19:33.527Z,100.00
2023-12-21T04:20:04.531Z,100.00
2023-12-21T04:20:34.878Z,100.00
2023-12-21T04:21:05.229Z,100.00
2023-12-21T04:21:35.595Z,100.00
2023-12-21T04:22:06.560Z,100.00
2023-12-21T04:22:37.574Z,100.00
2023-12-21T04:23:07.760Z,100.00
2023-12-21T04:23:38.174Z,100.00
2023-12-21T04:24:08.904Z,100.00
2023-12-21T04:24:39.661Z,100.00
2023-12-21T04:25:10.117Z,100.00
2023-12-21T04:25:40.518Z,100.00
2023-12-21T04:26:10.826Z,100.00
2023-12-21T04:26:41.232Z,100.00
2023-12-21T04:27:11.552Z,100.00
2023-12-21T04:27:42.340Z,100.00
2023-12-21T04:28:13.488Z,100.00
2023-12-21T04:29:14.305Z,100.00
2023-12-21T04:29:44.663Z,100.00
2023-12-21T04:30:15.108Z,100.00
2023-12-21T04:30:45.581Z,100.00
2023-12-21T04:31:15.778Z,100.00
2023-12-21T04:31:46.372Z,100.00
2023-12-21T04:32:16.777Z,100.00
2023-12-21T04:32:47.472Z,100.00
2023-12-21T04:33:17.563Z,100.00
2023-12-21T04:33:48.044Z,100.00
2023-12-21T04:34:18.420Z,100.00
2023-12-21T04:34:48.641Z,100.00
2023-12-21T04:35:49.373Z,100.00
2023-12-21T04:36:22.424Z,100.00
2023-12-21T04:36:49.992Z,100.00
2023-12-21T04:37:20.331Z,100.00
2023-12-21T04:37:50.712Z,100.00
2023-12-21T04:38:52.138Z,100.00
2023-12-21T04:39:22.091Z,100.00
2023-12-21T04:39:52.688Z,100.00
2023-12-21T04:40:23.570Z,100.00
2023-12-21T04:40:54.299Z,100.00
2023-12-21T04:41:25.136Z,100.00
2023-12-21T04:42:26.878Z,100.00
2023-12-21T04:42:57.833Z,100.00
2023-12-21T04:43:28.463Z,100.00
2023-12-21T04:43:59.910Z,100.00
2023-12-21T04:44:30.430Z,100.00
2023-12-21T04:45:00.867Z,100.00
2023-12-21T04:45:31.666Z,100.00
2023-12-21T04:46:32.954Z,100.00
2023-12-21T04:47:03.204Z,100.00
2023-12-21T04:47:33.595Z,100.00
2023-12-21T04:48:04.521Z,100.00
2023-12-21T04:48:35.734Z,100.00
2023-12-21T04:49:06.132Z,100.00
2023-12-21T04:50:06.829Z,100.00
2023-12-21T04:50:37.153Z,100.00
2023-12-21T04:51:07.502Z,100.00
2023-12-21T04:51:38.257Z,100.00
2023-12-21T04:52:09.050Z,100.00
2023-12-21T04:52:39.544Z,100.00
2023-12-21T04:53:40.412Z,100.00
2023-12-21T04:54:10.836Z,99.22
2023-12-21T04:54:41.710Z,100.00
2023-12-21T04:55:12.744Z,100.00
2023-12-21T04:55:43.652Z,100.00
2023-12-21T04:56:14.314Z,100.00
2023-12-21T04:57:16.408Z,100.00
2023-12-21T04:57:45.497Z,100.00
2023-12-21T04:58:15.816Z,100.00
2023-12-21T04:58:47.760Z,100.00
2023-12-21T04:59:17.896Z,100.00
2023-12-21T04:59:48.187Z,100.00
2023-12-21T05:00:19.061Z,100.00
2023-12-21T05:00:49.888Z,100.00
2023-12-21T05:01:20.368Z,100.00
2023-12-21T05:01:50.629Z,100.00
2023-12-21T05:02:21.339Z,100.00
2023-12-21T05:02:52.217Z,100.00
2023-12-21T05:03:22.593Z,100.00
2023-12-21T05:04:23.671Z,100.00
2023-12-21T05:04:54.006Z,100.00
2023-12-21T05:05:24.506Z,100.00
2023-12-21T05:05:55.048Z,100.00
2023-12-21T05:06:25.402Z,100.00
2023-12-21T05:07:26.875Z,100.00
2023-12-21T05:07:57.756Z,100.00
2023-12-21T05:08:28.673Z,100.00
2023-12-21T05:08:59.723Z,98.43
2023-12-21T05:09:30.558Z,98.43
2023-12-21T05:10:01.442Z,97.25
2023-12-21T05:10:32.191Z,100.00
2023-12-21T05:11:03.065Z,99.22
2023-12-21T05:11:33.472Z,100.00
2023-12-21T05:12:03.786Z,100.00
2023-12-21T05:12:34.212Z,100.00
2023-12-21T05:13:04.662Z,100.00
2023-12-21T05:13:35.088Z,100.00
2023-12-21T05:14:36.308Z,100.00
2023-12-21T05:15:06.590Z,100.00
2023-12-21T05:15:36.963Z,100.00
2023-12-21T05:16:07.473Z,100.00
2023-12-21T05:16:37.798Z,100.00
2023-12-21T05:17:09.378Z,100.00
2023-12-21T05:17:38.564Z,100.00
2023-12-21T05:18:08.945Z,100.00
2023-12-21T05:18:39.424Z,100.00
2023-12-21T05:19:09.819Z,100.00
2023-12-21T05:19:40.316Z,100.00
2023-12-21T05:20:10.555Z,100.00
2023-12-21T05:20:40.904Z,100.00
2023-12-21T05:21:11.265Z,100.00
2023-12-21T05:21:41.535Z,100.00
2023-12-21T05:22:11.842Z,100.00
2023-12-21T05:22:42.266Z,100.00
2023-12-21T05:23:43.038Z,100.00
2023-12-21T05:24:13.436Z,100.00
2023-12-21T05:24:44.511Z,100.00
2023-12-21T05:25:14.793Z,100.00
2023-12-21T05:25:45.206Z,100.00
2023-12-21T05:26:15.478Z,100.00
2023-12-21T05:26:45.863Z,100.00
2023-12-21T05:27:16.208Z,100.00
2023-12-21T05:27:46.617Z,100.00
2023-12-21T05:28:16.981Z,100.00
2023-12-21T05:28:47.387Z,100.00
2023-12-21T05:29:17.668Z,100.00
2023-12-21T05:29:49.038Z,100.00
2023-12-21T05:30:19.424Z,100.00
2023-12-21T05:30:49.983Z,100.00
2023-12-21T05:31:20.292Z,100.00
2023-12-21T05:31:50.754Z,100.00
2023-12-21T05:32:21.078Z,100.00
2023-12-21T05:32:51.924Z,100.00
2023-12-21T05:33:22.182Z,100.00
2023-12-21T05:34:22.880Z,100.00
2023-12-21T05:34:53.559Z,100.00
2023-12-21T05:35:23.919Z,100.00
2023-12-21T05:35:54.297Z,100.00
2023-12-21T05:36:24.756Z,100.00
2023-12-21T05:36:55.120Z,100.00
2023-12-21T05:37:25.564Z,100.00
2023-12-21T05:37:55.825Z,100.00
2023-12-21T05:38:26.211Z,100.00
2023-12-21T05:38:56.598Z,100.00
2023-12-21T05:39:27.008Z,98.04
2023-12-21T05:39:57.628Z,100.00
2023-12-21T05:40:27.810Z,100.00
2023-12-21T05:40:58.138Z,96.47
2023-12-21T05:41:28.550Z,100.00
2023-12-21T05:41:58.924Z,98.82
2023-12-21T05:42:29.331Z,98.04
2023-12-21T05:42:59.718Z,100.00
2023-12-21T05:44:00.580Z,98.82
2023-12-21T05:44:30.938Z,100.00
2023-12-21T05:45:01.663Z,100.00
2023-12-21T05:45:31.992Z,100.00
2023-12-21T05:46:02.304Z,100.00
2023-12-21T05:47:03.123Z,100.00
2023-12-21T05:47:33.674Z,100.00
2023-12-21T05:48:04.377Z,100.00
2023-12-21T05:48:34.759Z,100.00
2023-12-21T05:49:05.361Z,100.00
2023-12-21T05:49:35.521Z,100.00
2023-12-21T05:50:36.769Z,100.00
2023-12-21T05:51:07.177Z,100.00
2023-12-21T05:51:37.560Z,100.00
2023-12-21T05:52:08.206Z,100.00
2023-12-21T05:52:38.725Z,100.00
2023-12-21T05:53:09.005Z,100.00
2023-12-21T05:53:39.395Z,100.00
2023-12-21T05:54:09.822Z,100.00
2023-12-21T05:54:40.176Z,100.00
2023-12-21T05:55:10.740Z,100.00
2023-12-21T05:55:41.191Z,100.00
2023-12-21T05:56:11.476Z,100.00
2023-12-21T05:56:41.857Z,100.00
2023-12-21T05:57:12.178Z,100.00
2023-12-21T05:57:42.608Z,100.00
2023-12-21T05:58:13.093Z,100.00
2023-12-21T05:58:43.368Z,100.00
2023-12-21T05:59:44.197Z,100.00
2023-12-21T06:00:14.777Z,100.00
2023-12-21T06:00:45.079Z,100.00
2023-12-21T06:01:15.495Z,100.00
2023-12-21T06:01:46.900Z,100.00
2023-12-21T06:02:17.262Z,100.00
2023-12-21T06:03:18.079Z,100.00
2023-12-21T06:03:48.572Z,100.00
2023-12-21T06:04:19.075Z,100.00
2023-12-21T06:04:49.340Z,100.00
2023-12-21T06:05:19.763Z,100.00
2023-12-21T06:05:50.134Z,100.00
2023-12-21T06:06:20.503Z,100.00
2023-12-21T06:06:50.953Z,100.00
2023-12-21T06:07:22.099Z,100.00
2023-12-21T06:07:52.847Z,100.00
2023-12-21T06:08:23.351Z,100.00
2023-12-21T06:08:53.756Z,100.00
2023-12-21T06:09:24.120Z,100.00
2023-12-21T06:09:54.553Z,100.00
2023-12-21T06:10:25.082Z,100.00
2023-12-21T06:10:55.372Z,100.00
2023-12-21T06:11:25.721Z,100.00
2023-12-21T06:11:56.176Z,100.00
2023-12-21T06:12:26.543Z,100.00
2023-12-21T06:12:57.048Z,100.00
2023-12-21T06:13:27.334Z,100.00
2023-12-21T06:13:59.021Z,100.00
2023-12-21T06:14:29.426Z,100.00
2023-12-21T06:14:59.806Z,100.00
2023-12-21T06:16:01.742Z,100.00
2023-12-21T06:17:02.748Z,100.00
2023-12-21T06:17:33.270Z,100.00
2023-12-21T06:18:03.607Z,100.00
2023-12-21T06:18:34.098Z,100.00
2023-12-21T06:19:04.454Z,100.00
2023-12-21T06:20:05.313Z,100.00
2023-12-21T06:20:35.683Z,100.00
2023-12-21T06:21:06.250Z,100.00
2023-12-21T06:21:36.600Z,100.00
2023-12-21T06:22:07.121Z,100.00
2023-12-21T06:22:37.498Z,100.00
2023-12-21T06:23:07.837Z,100.00
2023-12-21T06:23:38.213Z,100.00
2023-12-21T06:24:08.572Z,100.00
2023-12-21T06:24:38.900Z,100.00
2023-12-21T06:25:09.355Z,100.00
2023-12-21T06:25:39.736Z,100.00
2023-12-21T06:26:40.776Z,100.00
2023-12-21T06:27:11.140Z,100.00
2023-12-21T06:27:41.436Z,100.00
2023-12-21T06:28:11.778Z,100.00
2023-12-21T06:28:42.325Z,100.00
2023-12-21T06:29:43.073Z,100.00
2023-12-21T06:30:13.445Z,100.00
2023-12-21T06:30:43.779Z,100.00
2023-12-21T06:31:15.463Z,100.00
2023-12-21T06:31:45.682Z,100.00
2023-12-21T06:32:16.082Z,100.00
2023-12-21T06:32:46.709Z,100.00
2023-12-21T06:33:16.860Z,100.00
2023-12-21T06:33:47.774Z,100.00
2023-12-21T06:34:18.797Z,100.00
2023-12-21T06:34:49.592Z,100.00
2023-12-21T06:35:20.334Z,100.00
2023-12-21T06:35:51.283Z,99.61
2023-12-21T06:36:52.825Z,100.00
2023-12-21T06:37:23.256Z,100.00
2023-12-21T06:37:54.066Z,100.00
2023-12-21T06:38:24.939Z,100.00
2023-12-21T06:38:55.851Z,100.00
2023-12-21T06:39:26.628Z,100.00
2023-12-21T06:39:57.544Z,100.00
2023-12-21T06:40:28.401Z,100.00
2023-12-21T06:40:59.179Z,100.00
2023-12-21T06:41:30.523Z,100.00
2023-12-21T06:42:01.183Z,99.22
2023-12-21T06:42:31.929Z,100.00
2023-12-21T06:43:02.474Z,100.00
2023-12-21T06:43:32.784Z,100.00
2023-12-21T06:44:03.192Z,100.00
2023-12-21T06:44:33.405Z,100.00
2023-12-21T06:45:03.754Z,100.00
2023-12-21T06:45:34.106Z,100.00
2023-12-21T06:46:04.580Z,100.00
2023-12-21T06:46:35.256Z,100.00
2023-12-21T06:47:05.590Z,100.00
2023-12-21T06:47:36.033Z,100.00
2023-12-21T06:48:07.070Z,100.00
2023-12-21T06:48:37.556Z,100.00
2023-12-21T06:49:07.984Z,100.00
2023-12-21T06:49:38.430Z,100.00
2023-12-21T06:50:08.778Z,100.00
2023-12-21T06:50:39.099Z,100.00
2023-12-21T06:51:09.563Z,100.00
2023-12-21T06:51:40.071Z,100.00
2023-12-21T06:52:10.501Z,100.00
2023-12-21T06:52:40.857Z,100.00
2023-12-21T06:53:11.374Z,100.00
2023-12-21T06:53:41.848Z,100.00
2023-12-21T06:54:12.262Z,100.00
2023-12-21T06:54:42.628Z,100.00